createdAt,value
2022-12-03T00:01:24.234Z,48.03
2022-12-03T00:03:55.029Z,46.38
2022-12-03T00:06:23.029Z,45.30
2022-12-03T00:08:51.353Z,38.38
2022-12-03T00:11:19.711Z,44.28
2022-12-03T00:13:48.370Z,37.65
2022-12-03T00:16:16.673Z,45.22
2022-12-03T00:18:45.026Z,39.85
2022-12-03T00:21:14.894Z,34.42
2022-12-03T00:23:43.266Z,36.80
2022-12-03T00:26:11.287Z,42.22
2022-12-03T00:28:39.448Z,35.88
2022-12-03T00:31:09.298Z,35.72
2022-12-03T00:33:37.677Z,34.50
2022-12-03T00:36:06.228Z,35.58
2022-12-03T00:38:35.606Z,35.20
2022-12-03T00:41:04.099Z,34.88
2022-12-03T00:43:32.434Z,31.55
2022-12-03T00:46:00.842Z,33.92
2022-12-03T00:48:29.297Z,33.72
2022-12-03T00:50:58.393Z,29.85
2022-12-03T00:53:26.318Z,29.77
2022-12-03T00:55:56.282Z,34.83
2022-12-03T00:58:24.583Z,32.13
2022-12-03T01:00:52.933Z,29.67
2022-12-03T01:03:21.296Z,30.60
2022-12-03T01:05:49.971Z,30.33
2022-12-03T01:08:18.233Z,38.60
2022-12-03T01:10:46.607Z,36.28
2022-12-03T01:13:16.448Z,28.42
2022-12-03T01:15:44.787Z,29.80
2022-12-03T01:18:13.078Z,31.83
2022-12-03T01:20:41.480Z,30.88
2022-12-03T01:23:09.379Z,32.97
2022-12-03T01:25:37.645Z,28.98
2022-12-03T01:28:05.793Z,31.55
2022-12-03T01:30:55.867Z,30.52
2022-12-03T01:33:22.858Z,28.48
2022-12-03T01:35:51.179Z,27.15
2022-12-03T01:38:19.617Z,27.33
2022-12-03T01:40:50.017Z,23.60
2022-12-03T01:43:18.254Z,22.63
2022-12-03T01:45:48.065Z,23.90
2022-12-03T01:48:19.430Z,22.90
2022-12-03T01:50:47.850Z,23.63
2022-12-03T01:53:18.414Z,24.75
2022-12-03T01:55:48.989Z,24.30
2022-12-03T01:58:18.120Z,21.38
2022-12-03T02:00:47.959Z,23.60
2022-12-03T02:03:18.248Z,19.95
2022-12-03T02:05:46.741Z,22.83
2022-12-03T02:08:31.359Z,21.63
2022-12-03T02:11:00.342Z,25.33
2022-12-03T02:13:28.823Z,22.92
2022-12-03T02:15:59.615Z,23.63
2022-12-03T02:18:27.688Z,25.33
2022-12-03T02:21:02.704Z,24.73
2022-12-03T02:23:34.921Z,27.83
2022-12-03T02:26:05.097Z,26.17
2022-12-03T02:28:33.449Z,27.48
2022-12-03T02:31:02.029Z,30.63
2022-12-03T02:33:30.382Z,28.23
2022-12-03T02:36:03.295Z,27.55
2022-12-03T02:38:33.634Z,33.95
2022-12-03T02:41:33.974Z,38.13
2022-12-03T02:44:02.380Z,35.08
2022-12-03T02:46:30.996Z,37.80
2022-12-03T02:48:59.503Z,38.33
2022-12-03T02:51:28.086Z,38.15
2022-12-03T02:53:56.798Z,37.10
2022-12-03T02:56:28.410Z,38.03
2022-12-03T02:58:58.670Z,39.60
2022-12-03T03:01:27.138Z,38.20
2022-12-03T03:03:55.562Z,34.97
2022-12-03T03:06:23.986Z,37.30
2022-12-03T03:08:52.240Z,35.13
2022-12-03T03:11:20.812Z,39.38
2022-12-03T03:13:50.508Z,34.15
2022-12-03T03:16:18.787Z,37.63
2022-12-03T03:18:46.844Z,34.40
2022-12-03T03:21:15.045Z,34.13
2022-12-03T03:23:43.370Z,38.25
2022-12-03T03:26:13.149Z,35.95
2022-12-03T03:28:43.752Z,39.45
2022-12-03T03:31:14.266Z,37.33
2022-12-03T03:33:44.096Z,33.78
2022-12-03T03:36:12.741Z,37.90
2022-12-03T03:38:41.302Z,37.28
2022-12-03T03:41:10.574Z,31.33
2022-12-03T03:43:39.846Z,33.80
2022-12-03T03:46:08.565Z,32.30
2022-12-03T03:48:38.414Z,35.80
2022-12-03T03:51:09.789Z,35.22
2022-12-03T03:53:38.397Z,38.05
2022-12-03T03:56:07.104Z,36.78
2022-12-03T03:58:35.498Z,35.25
2022-12-03T04:01:04.075Z,45.80
2022-12-03T04:03:32.592Z,36.78
2022-12-03T04:06:02.346Z,38.25
2022-12-03T04:08:30.663Z,38.15
2022-12-03T04:11:16.096Z,38.90
2022-12-03T04:13:44.456Z,33.85
2022-12-03T04:16:12.757Z,36.78
2022-12-03T04:18:46.885Z,34.17
2022-12-03T04:21:35.433Z,43.00
2022-12-03T04:24:03.979Z,36.75
2022-12-03T04:26:49.442Z,35.15
2022-12-03T04:29:17.713Z,37.38
2022-12-03T04:32:03.237Z,35.80
2022-12-03T04:34:48.351Z,35.92
2022-12-03T04:37:18.424Z,36.80
2022-12-03T04:39:46.774Z,37.60
2022-12-03T04:42:15.137Z,36.78
2022-12-03T04:44:43.072Z,38.58
2022-12-03T04:47:12.772Z,36.65
2022-12-03T04:49:42.002Z,35.30
2022-12-03T04:52:10.568Z,37.85
2022-12-03T04:54:40.480Z,35.67
2022-12-03T04:57:08.817Z,31.40
2022-12-03T04:59:37.552Z,34.83
2022-12-03T05:02:06.449Z,36.08
2022-12-03T05:04:34.950Z,29.15
2022-12-03T05:07:03.313Z,33.92
2022-12-03T05:09:31.485Z,30.38
2022-12-03T05:12:01.227Z,32.78
2022-12-03T05:14:29.521Z,34.58
2022-12-03T05:16:58.039Z,33.22
2022-12-03T05:19:46.529Z,35.03
2022-12-03T05:22:13.452Z,36.80
2022-12-03T05:24:41.788Z,33.70
2022-12-03T05:27:11.349Z,36.92
2022-12-03T05:29:39.761Z,35.92
2022-12-03T05:32:07.674Z,37.20
2022-12-03T05:34:36.070Z,29.55
2022-12-03T05:37:04.298Z,34.60
2022-12-03T05:39:32.647Z,31.15
2022-12-03T05:42:18.316Z,32.88
2022-12-03T05:44:48.137Z,38.03
2022-12-03T05:47:16.495Z,31.77
2022-12-03T05:49:45.160Z,34.97
2022-12-03T05:52:13.611Z,33.95
2022-12-03T05:54:41.901Z,37.33
2022-12-03T05:57:10.472Z,34.22
2022-12-03T05:59:39.013Z,36.22
2022-12-03T06:02:08.927Z,36.97
2022-12-03T06:04:37.332Z,35.67
2022-12-03T06:07:09.590Z,36.65
2022-12-03T06:09:40.830Z,37.35
2022-12-03T06:12:09.907Z,35.95
2022-12-03T06:14:38.386Z,33.80
2022-12-03T06:17:06.777Z,39.85
2022-12-03T06:19:36.791Z,42.58
2022-12-03T06:22:05.308Z,40.85
2022-12-03T06:24:33.502Z,38.42
2022-12-03T06:27:01.904Z,40.30
2022-12-03T06:29:30.663Z,38.75
2022-12-03T06:31:59.025Z,35.80
2022-12-03T06:34:27.533Z,38.85
2022-12-03T06:36:57.858Z,39.63
2022-12-03T06:39:26.277Z,35.15
2022-12-03T06:41:54.804Z,33.88
2022-12-03T06:44:23.223Z,35.17
2022-12-03T06:46:51.686Z,40.78
2022-12-03T06:49:20.145Z,35.20
2022-12-03T06:51:48.577Z,36.25
2022-12-03T06:54:18.786Z,35.83
2022-12-03T06:56:47.222Z,34.30
2022-12-03T06:59:15.803Z,36.05
2022-12-03T07:01:44.375Z,34.00
2022-12-03T07:04:12.804Z,30.30
2022-12-03T07:06:41.249Z,34.58
2022-12-03T07:09:10.103Z,33.08
2022-12-03T07:11:43.469Z,32.30
2022-12-03T07:14:14.808Z,32.78
2022-12-03T07:16:43.473Z,34.80
2022-12-03T07:19:12.359Z,32.10
2022-12-03T07:21:40.493Z,29.63
2022-12-03T07:24:10.230Z,34.50
2022-12-03T07:26:40.466Z,31.85
2022-12-03T07:29:08.535Z,31.52
2022-12-03T07:31:36.902Z,29.15
2022-12-03T07:34:05.567Z,32.33
2022-12-03T07:36:34.242Z,30.55
2022-12-03T07:39:07.776Z,35.78
2022-12-03T07:41:36.438Z,33.55
2022-12-03T07:44:14.321Z,31.95
2022-12-03T07:46:43.488Z,32.55
2022-12-03T07:49:12.180Z,35.03
2022-12-03T07:51:41.519Z,37.25
2022-12-03T07:54:10.243Z,49.13
2022-12-03T07:56:38.710Z,56.28
2022-12-03T07:59:11.170Z,79.25
2022-12-03T08:01:39.852Z,89.47
2022-12-03T08:04:08.408Z,90.80
2022-12-03T08:06:42.074Z,99.80
2022-12-03T08:09:15.758Z,85.47
2022-12-03T08:11:46.175Z,88.75
2022-12-03T08:14:16.779Z,86.25
2022-12-03T08:16:46.713Z,60.17
2022-12-03T08:19:17.742Z,73.15
2022-12-03T08:21:46.133Z,61.65
2022-12-03T08:24:15.542Z,61.58
2022-12-03T08:26:50.104Z,57.15
2022-12-03T08:29:20.628Z,57.05
2022-12-03T08:31:49.697Z,48.40
2022-12-03T08:34:19.469Z,47.47
2022-12-03T08:36:48.593Z,46.38
2022-12-03T08:39:28.117Z,54.25
2022-12-03T08:42:17.394Z,49.00
2022-12-03T08:44:47.421Z,45.60
2022-12-03T08:47:18.050Z,47.22
2022-12-03T08:49:49.001Z,44.58
2022-12-03T08:52:18.054Z,45.72
2022-12-03T08:54:53.500Z,45.15
2022-12-03T08:57:28.314Z,41.92
2022-12-03T09:00:00.365Z,52.53
2022-12-03T09:02:32.486Z,37.65
2022-12-03T09:05:01.240Z,43.67
2022-12-03T09:07:31.169Z,41.90
2022-12-03T09:09:59.979Z,40.42
2022-12-03T09:12:28.887Z,44.60
2022-12-03T09:14:59.330Z,40.55
2022-12-03T09:17:28.186Z,42.80
2022-12-03T09:19:57.313Z,39.72
2022-12-03T09:22:25.582Z,42.60
2022-12-03T09:24:57.122Z,42.35
2022-12-03T09:27:25.848Z,38.13
2022-12-03T09:29:55.360Z,38.95
2022-12-03T09:32:25.250Z,38.63
2022-12-03T09:34:54.270Z,40.88
2022-12-03T09:37:22.584Z,37.85
2022-12-03T09:39:51.206Z,40.35
2022-12-03T09:42:19.387Z,37.90
2022-12-03T09:44:48.604Z,34.00
2022-12-03T09:47:17.727Z,40.83
2022-12-03T09:49:47.522Z,38.08
2022-12-03T09:52:24.985Z,42.10
2022-12-03T09:54:54.621Z,44.13
2022-12-03T09:57:23.618Z,43.58
2022-12-03T09:59:52.523Z,40.05
2022-12-03T10:02:22.307Z,42.17
2022-12-03T10:04:52.916Z,36.67
2022-12-03T10:07:21.653Z,35.80
2022-12-03T10:09:50.106Z,34.45
2022-12-03T10:12:22.939Z,26.45
2022-12-03T10:14:51.765Z,34.65
2022-12-03T10:17:20.515Z,29.95
2022-12-03T10:19:49.073Z,32.70
2022-12-03T10:22:18.948Z,32.15
2022-12-03T10:24:47.034Z,28.67
2022-12-03T10:27:22.827Z,21.02
2022-12-03T10:29:57.325Z,14.50
2022-12-03T10:32:27.679Z,16.58
2022-12-03T10:35:08.905Z,20.58
2022-12-03T10:37:38.582Z,15.98
2022-12-03T10:40:09.451Z,13.85
2022-12-03T10:42:38.913Z,12.73
2022-12-03T10:45:15.235Z,11.88
2022-12-03T10:47:43.762Z,13.85
2022-12-03T10:50:17.255Z,14.98
2022-12-03T10:52:47.053Z,16.58
2022-12-03T10:55:16.029Z,18.42
2022-12-03T10:57:46.067Z,19.38
2022-12-03T11:00:17.071Z,18.25
2022-12-03T11:02:46.760Z,21.88
2022-12-03T11:05:17.420Z,18.38
2022-12-03T11:07:46.949Z,14.77
2022-12-03T11:10:16.316Z,17.48
2022-12-03T11:13:05.169Z,15.25
2022-12-03T11:15:43.300Z,14.82
2022-12-03T11:18:11.992Z,14.10
2022-12-03T11:21:06.683Z,15.23
2022-12-03T11:23:54.953Z,14.70
2022-12-03T11:26:38.226Z,15.52
2022-12-03T11:29:14.933Z,17.50
2022-12-03T11:31:44.538Z,13.43
2022-12-03T11:34:46.351Z,13.40
2022-12-03T11:37:24.616Z,13.57
2022-12-03T11:40:11.795Z,13.38
2022-12-03T11:42:41.169Z,14.93
2022-12-03T11:45:23.754Z,13.93
2022-12-03T11:48:02.917Z,12.40
2022-12-03T11:50:39.333Z,15.13
2022-12-03T11:53:14.227Z,13.30
2022-12-03T11:55:44.437Z,12.63
2022-12-03T11:58:16.710Z,15.70
2022-12-03T12:00:51.316Z,15.27
2022-12-03T12:03:34.267Z,14.43
2022-12-03T12:06:07.209Z,11.63
2022-12-03T12:08:36.696Z,14.10
2022-12-03T12:11:05.630Z,14.57
2022-12-03T12:13:57.585Z,13.25
2022-12-03T12:17:03.355Z,15.60
2022-12-03T12:19:33.501Z,13.88
2022-12-03T12:22:21.922Z,14.88
2022-12-03T12:24:52.636Z,15.25
2022-12-03T12:27:22.122Z,12.25
2022-12-03T12:29:55.022Z,12.05
2022-12-03T12:32:26.153Z,12.82
2022-12-03T12:34:56.356Z,12.38
2022-12-03T12:37:27.677Z,13.25
2022-12-03T12:39:57.805Z,11.02
2022-12-03T12:42:30.713Z,12.00
2022-12-03T12:45:00.637Z,12.93
2022-12-03T12:47:32.261Z,12.10
2022-12-03T12:50:00.681Z,11.68
2022-12-03T12:52:29.440Z,10.35
2022-12-03T12:55:03.055Z,11.30
2022-12-03T12:57:33.283Z,12.13
2022-12-03T13:00:01.291Z,11.30
2022-12-03T13:02:42.267Z,11.73
2022-12-03T13:05:11.927Z,9.95
2022-12-03T13:07:40.736Z,10.52
2022-12-03T13:10:26.998Z,11.90
2022-12-03T13:12:55.449Z,11.63
2022-12-03T13:15:37.433Z,11.02
2022-12-03T13:18:12.271Z,12.90
2022-12-03T13:20:40.685Z,12.43
2022-12-03T13:23:15.579Z,12.35
2022-12-03T13:26:00.617Z,12.23
2022-12-03T13:28:33.832Z,13.07
2022-12-03T13:31:14.218Z,14.48
2022-12-03T13:33:44.729Z,13.15
2022-12-03T13:36:15.702Z,13.68
2022-12-03T13:38:44.277Z,12.70
2022-12-03T13:41:35.260Z,13.02
2022-12-03T13:44:04.522Z,11.52
2022-12-03T13:46:36.126Z,13.93
2022-12-03T13:49:12.166Z,12.30
2022-12-03T13:51:42.907Z,14.77
2022-12-03T13:54:16.255Z,13.90
2022-12-03T13:56:44.484Z,15.50
2022-12-03T13:59:13.657Z,13.65
2022-12-03T14:01:41.815Z,14.52
2022-12-03T14:04:12.223Z,14.85
2022-12-03T14:06:40.743Z,14.48
2022-12-03T14:09:09.126Z,13.88
2022-12-03T14:11:54.861Z,14.07
2022-12-03T14:14:22.962Z,15.32
2022-12-03T14:16:55.369Z,15.45
2022-12-03T14:19:28.406Z,13.40
2022-12-03T14:21:57.079Z,14.77
2022-12-03T14:24:26.468Z,14.07
2022-12-03T14:26:54.558Z,13.23
2022-12-03T14:29:22.950Z,14.35
2022-12-03T14:31:51.522Z,14.32
2022-12-03T14:34:23.094Z,17.13
2022-12-03T14:36:52.890Z,13.85
2022-12-03T14:39:21.494Z,14.40
2022-12-03T14:42:06.982Z,14.35
2022-12-03T14:44:35.950Z,14.85
2022-12-03T14:47:04.994Z,15.63
2022-12-03T14:49:33.357Z,17.00
2022-12-03T14:52:03.691Z,17.10
2022-12-03T14:54:32.077Z,15.48
2022-12-03T14:57:00.454Z,16.55
2022-12-03T14:59:29.127Z,15.05
2022-12-03T15:01:57.721Z,15.75
2022-12-03T15:04:25.829Z,20.45
2022-12-03T15:06:54.441Z,16.60
2022-12-03T15:09:24.683Z,15.15
2022-12-03T15:11:53.070Z,16.25
2022-12-03T15:14:21.429Z,22.30
2022-12-03T15:16:49.901Z,21.45
2022-12-03T15:19:18.435Z,16.63
2022-12-03T15:21:48.026Z,16.00
2022-12-03T15:24:15.976Z,17.55
2022-12-03T15:26:45.762Z,15.45
2022-12-03T15:29:13.772Z,17.95
2022-12-03T15:31:41.847Z,17.00
2022-12-03T15:34:10.283Z,21.38
2022-12-03T15:36:38.337Z,19.50
2022-12-03T15:39:06.793Z,18.85
2022-12-03T15:41:35.109Z,20.95
2022-12-03T15:44:04.921Z,17.73
2022-12-03T15:46:33.359Z,17.98
2022-12-03T15:49:02.120Z,17.23
2022-12-03T15:51:31.418Z,19.10
2022-12-03T15:53:59.778Z,18.30
2022-12-03T15:56:28.274Z,17.58
2022-12-03T15:58:57.071Z,21.25
2022-12-03T16:01:26.539Z,18.80
2022-12-03T16:03:55.048Z,18.05
2022-12-03T16:06:23.001Z,15.63
2022-12-03T16:08:51.720Z,18.25
2022-12-03T16:11:20.266Z,18.25
2022-12-03T16:13:48.699Z,18.13
2022-12-03T16:16:17.037Z,17.35
2022-12-03T16:18:46.880Z,17.58
2022-12-03T16:21:15.349Z,17.25
2022-12-03T16:23:43.366Z,17.58
2022-12-03T16:26:11.786Z,23.35
2022-12-03T16:28:40.016Z,22.42
2022-12-03T16:31:08.041Z,19.42
2022-12-03T16:33:36.423Z,19.63
2022-12-03T16:36:06.491Z,17.27
2022-12-03T16:38:34.749Z,16.52
2022-12-03T16:41:03.350Z,17.90
2022-12-03T16:43:34.063Z,23.83
2022-12-03T16:46:20.698Z,17.30
2022-12-03T16:51:21.474Z,19.33
2022-12-03T16:53:49.881Z,20.20
2022-12-03T16:56:18.202Z,18.63
2022-12-03T16:58:46.463Z,22.58
2022-12-03T17:01:15.864Z,21.40
2022-12-03T17:03:44.680Z,26.85
2022-12-03T17:06:13.027Z,25.08
2022-12-03T17:08:48.727Z,28.30
2022-12-03T17:11:17.880Z,23.15
2022-12-03T17:13:46.134Z,29.48
2022-12-03T17:16:14.551Z,25.83
2022-12-03T17:18:42.804Z,37.85
2022-12-03T17:21:10.889Z,27.73
2022-12-03T17:23:39.224Z,26.88
2022-12-03T17:26:08.953Z,26.77
2022-12-03T17:28:37.344Z,26.73
2022-12-03T17:31:05.606Z,27.17
2022-12-03T17:33:34.096Z,26.98
2022-12-03T17:36:02.384Z,28.08
2022-12-03T17:38:35.645Z,33.58
2022-12-03T17:41:08.594Z,39.67
2022-12-03T17:43:37.449Z,34.50
2022-12-03T17:46:06.829Z,30.20
2022-12-03T17:48:35.866Z,31.83
2022-12-03T17:51:04.210Z,27.75
2022-12-03T17:53:32.449Z,34.20
2022-12-03T17:56:00.807Z,38.15
2022-12-03T17:58:30.665Z,35.92
2022-12-03T18:01:02.807Z,35.70
2022-12-03T18:03:31.695Z,39.65
2022-12-03T18:06:00.015Z,42.13
2022-12-03T18:08:29.410Z,45.03
2022-12-03T18:10:57.514Z,37.95
2022-12-03T18:13:25.769Z,38.05
2022-12-03T18:15:55.978Z,35.33
2022-12-03T18:18:24.357Z,39.40
2022-12-03T18:20:53.380Z,37.78
2022-12-03T18:23:21.772Z,43.67
2022-12-03T18:25:50.226Z,42.88
2022-12-03T18:28:18.651Z,43.78
2022-12-03T18:30:52.171Z,42.80
2022-12-03T18:33:23.442Z,42.90
2022-12-03T18:35:53.309Z,43.20
2022-12-03T18:38:21.927Z,42.42
2022-12-03T18:40:51.578Z,51.50
2022-12-03T18:43:22.470Z,59.70
2022-12-03T18:45:50.539Z,76.90
2022-12-03T18:48:19.673Z,85.90
2022-12-03T18:50:49.855Z,91.53
2022-12-03T18:53:19.515Z,97.90
2022-12-03T18:55:48.226Z,101.80
2022-12-03T18:58:19.181Z,110.47
2022-12-03T19:00:47.293Z,116.18
2022-12-03T19:03:15.869Z,110.47
2022-12-03T19:05:44.340Z,110.35
2022-12-03T19:08:15.561Z,109.97
2022-12-03T19:10:44.300Z,100.78
2022-12-03T19:13:12.767Z,105.10
2022-12-03T19:15:41.218Z,100.53
2022-12-03T19:18:09.471Z,106.88
2022-12-03T19:20:40.870Z,108.40
2022-12-03T19:23:09.289Z,80.32
2022-12-03T19:25:38.661Z,77.35
2022-12-03T19:28:09.828Z,64.95
2022-12-03T19:30:38.151Z,55.17
2022-12-03T19:33:06.480Z,47.85
2022-12-03T19:35:40.099Z,46.20
2022-12-03T19:38:08.779Z,44.53
2022-12-03T19:40:38.664Z,50.33
2022-12-03T19:43:07.006Z,46.20
2022-12-03T19:45:36.921Z,42.53
2022-12-03T19:48:05.088Z,45.05
2022-12-03T19:50:33.470Z,40.80
2022-12-03T19:53:01.764Z,42.25
2022-12-03T19:55:30.205Z,48.50
2022-12-03T19:58:00.752Z,68.20
2022-12-03T20:00:29.205Z,69.05
2022-12-03T20:02:57.256Z,70.20
2022-12-03T20:05:30.374Z,80.40
2022-12-03T20:08:02.058Z,77.75
2022-12-03T20:10:30.494Z,74.43
2022-12-03T20:12:58.772Z,72.40
2022-12-03T20:15:28.680Z,52.92
2022-12-03T20:17:57.078Z,57.92
2022-12-03T20:20:25.547Z,54.75
2022-12-03T20:22:53.505Z,64.43
2022-12-03T20:25:21.947Z,54.35
2022-12-03T20:27:50.345Z,55.38
2022-12-03T20:30:18.914Z,59.28
2022-12-03T20:32:48.419Z,54.90
2022-12-03T20:35:16.963Z,52.22
2022-12-03T20:37:45.327Z,55.25
2022-12-03T20:40:13.894Z,47.00
2022-12-03T20:42:42.222Z,50.95
2022-12-03T20:45:12.024Z,56.92
2022-12-03T20:47:40.110Z,71.97
2022-12-03T20:50:10.864Z,70.00
2022-12-03T20:52:38.863Z,79.28
2022-12-03T20:55:07.168Z,63.05
2022-12-03T20:57:35.289Z,64.88
2022-12-03T21:00:03.554Z,61.35
2022-12-03T21:02:32.760Z,57.90
2022-12-03T21:05:01.308Z,59.38
2022-12-03T21:07:30.997Z,63.20
2022-12-03T21:09:59.466Z,56.38
2022-12-03T21:12:28.227Z,61.13
2022-12-03T21:14:56.552Z,67.93
2022-12-03T21:17:24.635Z,71.15
2022-12-03T21:19:54.159Z,77.90
2022-12-03T21:22:22.898Z,61.83
2022-12-03T21:24:52.625Z,59.85
2022-12-03T21:27:21.949Z,56.10
2022-12-03T21:29:50.233Z,52.85
2022-12-03T21:32:18.282Z,48.90
2022-12-03T21:34:46.530Z,66.55
2022-12-03T21:37:14.770Z,56.95
2022-12-03T21:39:43.117Z,52.35
2022-12-03T21:42:33.776Z,50.05
2022-12-03T21:45:01.566Z,50.03
2022-12-03T21:47:35.146Z,45.15
2022-12-03T21:50:06.282Z,48.25
2022-12-03T21:52:34.775Z,42.53
2022-12-03T21:55:03.257Z,40.30
2022-12-03T21:57:33.160Z,37.95
2022-12-03T22:00:01.431Z,38.30
2022-12-03T22:02:29.812Z,40.25
2022-12-03T22:04:58.239Z,42.65
2022-12-03T22:07:26.697Z,44.63
2022-12-03T22:09:55.095Z,39.13
2022-12-03T22:12:23.535Z,39.33
2022-12-03T22:14:53.686Z,40.47
2022-12-03T22:17:21.952Z,37.78
2022-12-03T22:19:50.246Z,37.20
2022-12-03T22:22:18.857Z,41.63
2022-12-03T22:24:47.451Z,35.55
2022-12-03T22:27:15.874Z,37.63
2022-12-03T22:29:44.312Z,37.65
2022-12-03T22:32:13.809Z,36.33
2022-12-03T22:34:42.644Z,34.60
2022-12-03T22:37:11.108Z,39.45
2022-12-03T22:39:39.368Z,37.90
2022-12-03T22:42:07.760Z,37.75
2022-12-03T22:44:36.143Z,37.78
2022-12-03T22:47:07.141Z,39.65
2022-12-03T22:49:36.927Z,36.45
2022-12-03T22:52:05.414Z,36.53
2022-12-03T22:54:33.718Z,35.35
2022-12-03T22:57:02.055Z,36.92
2022-12-03T22:59:30.161Z,36.67
2022-12-03T23:01:58.454Z,35.05
2022-12-03T23:04:26.808Z,30.58
2022-12-03T23:06:56.698Z,30.95
2022-12-03T23:09:24.707Z,36.22
2022-12-03T23:11:52.666Z,34.05
2022-12-03T23:14:20.590Z,34.80
2022-12-03T23:16:51.657Z,25.55
2022-12-03T23:19:21.133Z,30.20
2022-12-03T23:21:49.438Z,32.28
2022-12-03T23:24:19.270Z,30.92
2022-12-03T23:26:47.716Z,28.35
2022-12-03T23:29:16.044Z,27.42
2022-12-03T23:31:44.826Z,29.38
2022-12-03T23:34:13.152Z,27.50
2022-12-03T23:36:41.557Z,26.35
2022-12-03T23:39:10.448Z,28.73
2022-12-03T23:41:40.170Z,26.83
2022-12-03T23:44:08.145Z,26.67
2022-12-03T23:46:36.357Z,25.40
2022-12-03T23:49:04.875Z,28.95
2022-12-03T23:51:33.163Z,30.65
2022-12-03T23:54:01.587Z,30.48
2022-12-03T23:56:31.191Z,34.78
2022-12-03T23:59:01.522Z,33.60
